sensor_id;sensor_type;location;lat;lon;timestamp;pressure;altitude;pressure_sealevel;temperature;humidity
76205;BME280;64986;55.672;37.628;2023-03-01T00:01:55;98693.44;;;-5.62;56.51
76205;BME280;64986;55.672;37.628;2023-03-01T00:04:21;98679.47;;;-5.58;57.04
76205;BME280;64986;55.672;37.628;2023-03-01T00:06:46;98664.16;;;-5.80;57.05
76205;BME280;64986;55.672;37.628;2023-03-01T00:09:14;98683.34;;;-5.75;56.17
76205;BME280;64986;55.672;37.628;2023-03-01T00:11:39;98681.81;;;-5.66;57.05
76205;BME280;64986;55.672;37.628;2023-03-01T00:14:05;98678.53;;;-5.68;56.73
76205;BME280;64986;55.672;37.628;2023-03-01T00:16:37;98677.94;;;-5.61;57.04
76205;BME280;64986;55.672;37.628;2023-03-01T00:19:12;98696.75;;;-5.71;56.97
76205;BME280;64986;55.672;37.628;2023-03-01T00:21:38;98668.66;;;-5.94;57.51
76205;BME280;64986;55.672;37.628;2023-03-01T00:24:04;98680.91;;;-5.76;57.22
76205;BME280;64986;55.672;37.628;2023-03-01T00:26:30;98669.50;;;-5.72;57.02
76205;BME280;64986;55.672;37.628;2023-03-01T00:28:57;98673.47;;;-5.79;57.31
76205;BME280;64986;55.672;37.628;2023-03-01T00:31:26;98679.75;;;-5.72;57.12
76205;BME280;64986;55.672;37.628;2023-03-01T00:33:54;98680.47;;;-5.81;57.15
76205;BME280;64986;55.672;37.628;2023-03-01T00:36:27;98678.59;;;-5.79;57.39
76205;BME280;64986;55.672;37.628;2023-03-01T00:38:53;98677.16;;;-5.93;57.61
76205;BME280;64986;55.672;37.628;2023-03-01T00:41:20;98672.38;;;-5.98;57.25
76205;BME280;64986;55.672;37.628;2023-03-01T00:43:48;98678.53;;;-5.89;57.67
76205;BME280;64986;55.672;37.628;2023-03-01T00:46:20;98655.97;;;-5.95;57.38
76205;BME280;64986;55.672;37.628;2023-03-01T00:48:45;98669.59;;;-5.95;57.04
76205;BME280;64986;55.672;37.628;2023-03-01T00:51:14;98678.13;;;-5.73;57.51
76205;BME280;64986;55.672;37.628;2023-03-01T00:53:40;98671.25;;;-5.84;57.32
76205;BME280;64986;55.672;37.628;2023-03-01T00:56:08;98673.53;;;-5.70;57.45
76205;BME280;64986;55.672;37.628;2023-03-01T00:58:34;98670.63;;;-5.97;57.38
76205;BME280;64986;55.672;37.628;2023-03-01T01:01:00;98666.13;;;-6.16;57.77
76205;BME280;64986;55.672;37.628;2023-03-01T01:03:26;98666.56;;;-6.00;57.43
76205;BME280;64986;55.672;37.628;2023-03-01T01:05:52;98662.59;;;-5.93;57.19
76205;BME280;64986;55.672;37.628;2023-03-01T01:08:19;98678.34;;;-5.76;57.16
76205;BME280;64986;55.672;37.628;2023-03-01T01:10:46;98670.28;;;-5.93;56.92
76205;BME280;64986;55.672;37.628;2023-03-01T01:13:12;98668.31;;;-6.00;57.45
76205;BME280;64986;55.672;37.628;2023-03-01T01:15:38;98661.47;;;-6.11;57.09
76205;BME280;64986;55.672;37.628;2023-03-01T01:18:04;98644.03;;;-6.17;58.24
76205;BME280;64986;55.672;37.628;2023-03-01T01:20:29;98673.34;;;-6.10;58.54
76205;BME280;64986;55.672;37.628;2023-03-01T01:22:55;98666.81;;;-6.03;58.03
76205;BME280;64986;55.672;37.628;2023-03-01T01:25:20;98662.97;;;-6.08;57.48
76205;BME280;64986;55.672;37.628;2023-03-01T01:27:46;98658.16;;;-5.91;57.13
76205;BME280;64986;55.672;37.628;2023-03-01T01:30:12;98658.66;;;-6.08;57.18
76205;BME280;64986;55.672;37.628;2023-03-01T01:32:38;98666.59;;;-6.11;58.23
76205;BME280;64986;55.672;37.628;2023-03-01T01:35:04;98673.78;;;-5.94;57.52
76205;BME280;64986;55.672;37.628;2023-03-01T01:37:29;98660.97;;;-6.05;58.03
76205;BME280;64986;55.672;37.628;2023-03-01T01:40:00;98676.13;;;-6.13;58.39
76205;BME280;64986;55.672;37.628;2023-03-01T01:42:28;98670.53;;;-6.07;58.49
76205;BME280;64986;55.672;37.628;2023-03-01T01:45:31;98668.41;;;-5.91;58.05
76205;BME280;64986;55.672;37.628;2023-03-01T01:48:03;98674.22;;;-5.89;57.92
76205;BME280;64986;55.672;37.628;2023-03-01T01:50:30;98665.44;;;-6.18;58.10
76205;BME280;64986;55.672;37.628;2023-03-01T01:53:06;98673.47;;;-6.23;58.32
76205;BME280;64986;55.672;37.628;2023-03-01T01:55:36;98649.16;;;-6.17;59.36
76205;BME280;64986;55.672;37.628;2023-03-01T01:58:05;98665.66;;;-6.21;59.25
76205;BME280;64986;55.672;37.628;2023-03-01T02:00:33;98681.38;;;-6.03;59.35
76205;BME280;64986;55.672;37.628;2023-03-01T02:03:02;98659.88;;;-6.23;59.48
76205;BME280;64986;55.672;37.628;2023-03-01T02:08:00;98666.63;;;-5.90;58.25
76205;BME280;64986;55.672;37.628;2023-03-01T02:10:26;98677.19;;;-5.83;58.20
76205;BME280;64986;55.672;37.628;2023-03-01T02:12:54;98674.13;;;-5.98;58.70
76205;BME280;64986;55.672;37.628;2023-03-01T02:15:22;98658.53;;;-5.95;58.87
76205;BME280;64986;55.672;37.628;2023-03-01T02:17:48;98666.53;;;-5.89;58.56
76205;BME280;64986;55.672;37.628;2023-03-01T02:20:37;98654.63;;;-5.90;58.29
76205;BME280;64986;55.672;37.628;2023-03-01T02:23:00;98663.66;;;-5.95;58.22
76205;BME280;64986;55.672;37.628;2023-03-01T02:30:41;98656.50;;;-6.35;59.04
76205;BME280;64986;55.672;37.628;2023-03-01T02:33:28;98679.16;;;-5.97;59.24
76205;BME280;64986;55.672;37.628;2023-03-01T02:35:59;98634.47;;;-6.15;59.13
76205;BME280;64986;55.672;37.628;2023-03-01T02:38:25;98661.34;;;-6.09;58.63
76205;BME280;64986;55.672;37.628;2023-03-01T02:40:52;98674.28;;;-6.22;58.79
76205;BME280;64986;55.672;37.628;2023-03-01T02:43:21;98661.97;;;-6.28;59.05
76205;BME280;64986;55.672;37.628;2023-03-01T02:45:52;98660.34;;;-6.29;60.37
76205;BME280;64986;55.672;37.628;2023-03-01T02:48:19;98685.94;;;-6.18;59.33
76205;BME280;64986;55.672;37.628;2023-03-01T02:56:04;98672.19;;;-6.28;59.54
76205;BME280;64986;55.672;37.628;2023-03-01T02:58:30;98678.81;;;-6.15;60.06
76205;BME280;64986;55.672;37.628;2023-03-01T03:00:56;98675.72;;;-6.52;60.59
76205;BME280;64986;55.672;37.628;2023-03-01T03:03:22;98692.38;;;-6.57;60.16
76205;BME280;64986;55.672;37.628;2023-03-01T03:05:48;98686.78;;;-6.40;60.47
76205;BME280;64986;55.672;37.628;2023-03-01T03:08:13;98679.66;;;-6.36;60.53
76205;BME280;64986;55.672;37.628;2023-03-01T03:10:42;98669.88;;;-6.43;60.38
76205;BME280;64986;55.672;37.628;2023-03-01T03:13:13;98662.69;;;-6.60;60.40
76205;BME280;64986;55.672;37.628;2023-03-01T03:15:40;98669.44;;;-6.59;60.58
76205;BME280;64986;55.672;37.628;2023-03-01T03:18:12;98650.81;;;-6.83;61.13
76205;BME280;64986;55.672;37.628;2023-03-01T03:20:40;98670.25;;;-6.81;61.21
76205;BME280;64986;55.672;37.628;2023-03-01T03:23:06;98667.00;;;-6.83;61.98
76205;BME280;64986;55.672;37.628;2023-03-01T03:25:32;98679.31;;;-6.65;61.18
76205;BME280;64986;55.672;37.628;2023-03-01T03:27:58;98662.47;;;-6.79;61.67
76205;BME280;64986;55.672;37.628;2023-03-01T03:30:26;98692.25;;;-6.56;61.45
76205;BME280;64986;55.672;37.628;2023-03-01T03:32:53;98677.22;;;-6.60;61.68
76205;BME280;64986;55.672;37.628;2023-03-01T03:35:27;98665.72;;;-6.77;61.92
76205;BME280;64986;55.672;37.628;2023-03-01T03:37:55;98693.97;;;-6.79;62.04
76205;BME280;64986;55.672;37.628;2023-03-01T03:40:35;98674.09;;;-6.86;61.37
76205;BME280;64986;55.672;37.628;2023-03-01T03:43:03;98688.28;;;-6.71;62.23
76205;BME280;64986;55.672;37.628;2023-03-01T03:45:29;98678.00;;;-7.05;62.32
76205;BME280;64986;55.672;37.628;2023-03-01T03:47:58;98675.91;;;-7.11;62.74
76205;BME280;64986;55.672;37.628;2023-03-01T03:50:24;98697.00;;;-6.62;62.43
76205;BME280;64986;55.672;37.628;2023-03-01T03:52:49;98704.19;;;-7.01;62.29
76205;BME280;64986;55.672;37.628;2023-03-01T03:55:15;98695.91;;;-7.05;62.67
76205;BME280;64986;55.672;37.628;2023-03-01T03:57:46;98701.59;;;-7.12;63.58
76205;BME280;64986;55.672;37.628;2023-03-01T04:00:21;98694.28;;;-7.06;63.13
76205;BME280;64986;55.672;37.628;2023-03-01T04:02:49;98714.06;;;-6.96;63.04
76205;BME280;64986;55.672;37.628;2023-03-01T04:05:17;98698.91;;;-7.11;63.49
76205;BME280;64986;55.672;37.628;2023-03-01T04:07:44;98688.69;;;-7.11;63.23
76205;BME280;64986;55.672;37.628;2023-03-01T04:10:13;98712.16;;;-7.17;63.52
76205;BME280;64986;55.672;37.628;2023-03-01T04:12:38;98711.97;;;-7.03;63.29
76205;BME280;64986;55.672;37.628;2023-03-01T04:15:06;98698.25;;;-7.02;63.71
76205;BME280;64986;55.672;37.628;2023-03-01T04:17:42;98714.09;;;-6.85;63.48
76205;BME280;64986;55.672;37.628;2023-03-01T04:20:17;98715.59;;;-6.83;63.69
76205;BME280;64986;55.672;37.628;2023-03-01T04:22:43;98719.41;;;-7.00;63.54
76205;BME280;64986;55.672;37.628;2023-03-01T04:25:12;98721.63;;;-6.95;63.15
76205;BME280;64986;55.672;37.628;2023-03-01T04:27:39;98715.47;;;-6.92;63.83
76205;BME280;64986;55.672;37.628;2023-03-01T04:30:06;98692.63;;;-7.18;64.05
76205;BME280;64986;55.672;37.628;2023-03-01T04:32:31;98722.38;;;-6.71;63.04
76205;BME280;64986;55.672;37.628;2023-03-01T04:34:57;98724.69;;;-6.67;62.37
76205;BME280;64986;55.672;37.628;2023-03-01T04:37:23;98719.25;;;-6.63;62.33
76205;BME280;64986;55.672;37.628;2023-03-01T04:39:49;98737.97;;;-6.62;62.86
76205;BME280;64986;55.672;37.628;2023-03-01T04:42:15;98743.88;;;-6.51;62.74
76205;BME280;64986;55.672;37.628;2023-03-01T04:44:42;98723.06;;;-6.68;62.79
76205;BME280;64986;55.672;37.628;2023-03-01T04:47:08;98719.78;;;-6.82;63.52
76205;BME280;64986;55.672;37.628;2023-03-01T04:49:34;98736.44;;;-6.65;63.04
76205;BME280;64986;55.672;37.628;2023-03-01T04:52:00;98719.69;;;-6.58;63.24
76205;BME280;64986;55.672;37.628;2023-03-01T04:54:33;98729.56;;;-6.76;63.83
76205;BME280;64986;55.672;37.628;2023-03-01T04:57:00;98727.81;;;-6.75;63.93
76205;BME280;64986;55.672;37.628;2023-03-01T04:59:26;98735.97;;;-6.59;63.01
76205;BME280;64986;55.672;37.628;2023-03-01T05:01:53;98733.78;;;-6.52;62.84
76205;BME280;64986;55.672;37.628;2023-03-01T05:04:23;98735.16;;;-6.59;63.48
76205;BME280;64986;55.672;37.628;2023-03-01T05:06:48;98718.28;;;-6.51;62.71
76205;BME280;64986;55.672;37.628;2023-03-01T05:09:14;98746.69;;;-6.31;62.85
76205;BME280;64986;55.672;37.628;2023-03-01T05:11:39;98736.78;;;-6.36;62.06
76205;BME280;64986;55.672;37.628;2023-03-01T05:14:06;98743.09;;;-6.29;62.47
76205;BME280;64986;55.672;37.628;2023-03-01T05:16:32;98738.56;;;-6.25;62.83
76205;BME280;64986;55.672;37.628;2023-03-01T05:18:59;98733.19;;;-6.22;62.81
76205;BME280;64986;55.672;37.628;2023-03-01T05:21:25;98746.09;;;-6.12;62.45
76205;BME280;64986;55.672;37.628;2023-03-01T05:23:51;98742.00;;;-5.93;62.45
76205;BME280;64986;55.672;37.628;2023-03-01T05:26:18;98751.78;;;-5.98;61.98
76205;BME280;64986;55.672;37.628;2023-03-01T05:28:47;98777.34;;;-5.75;61.47
76205;BME280;64986;55.672;37.628;2023-03-01T05:31:12;98763.56;;;-6.06;62.43
76205;BME280;64986;55.672;37.628;2023-03-01T05:33:41;98767.09;;;-5.75;62.36
76205;BME280;64986;55.672;37.628;2023-03-01T05:36:08;98758.44;;;-5.52;61.58
76205;BME280;64986;55.672;37.628;2023-03-01T05:38:35;98776.41;;;-5.63;62.15
76205;BME280;64986;55.672;37.628;2023-03-01T05:41:01;98756.69;;;-5.51;61.70
76205;BME280;64986;55.672;37.628;2023-03-01T05:43:30;98781.91;;;-5.24;61.45
76205;BME280;64986;55.672;37.628;2023-03-01T05:45:59;98768.66;;;-5.41;60.87
76205;BME280;64986;55.672;37.628;2023-03-01T05:48:25;98782.63;;;-5.34;60.85
76205;BME280;64986;55.672;37.628;2023-03-01T05:50:51;98766.63;;;-5.26;60.60
76205;BME280;64986;55.672;37.628;2023-03-01T05:53:18;98751.28;;;-5.37;60.42
76205;BME280;64986;55.672;37.628;2023-03-01T05:55:48;98784.13;;;-5.31;60.05
76205;BME280;64986;55.672;37.628;2023-03-01T05:58:17;98781.75;;;-5.23;58.85
76205;BME280;64986;55.672;37.628;2023-03-01T06:00:44;98776.81;;;-5.36;59.38
76205;BME280;64986;55.672;37.628;2023-03-01T06:03:12;98779.53;;;-5.48;60.48
76205;BME280;64986;55.672;37.628;2023-03-01T06:05:39;98787.03;;;-5.24;60.32
76205;BME280;64986;55.672;37.628;2023-03-01T06:08:05;98782.63;;;-5.34;60.17
76205;BME280;64986;55.672;37.628;2023-03-01T06:10:31;98787.09;;;-5.15;59.77
76205;BME280;64986;55.672;37.628;2023-03-01T06:12:57;98785.72;;;-5.19;61.04
76205;BME280;64986;55.672;37.628;2023-03-01T06:15:23;98761.16;;;-5.21;60.42
76205;BME280;64986;55.672;37.628;2023-03-01T06:17:49;98781.31;;;-4.96;60.33
76205;BME280;64986;55.672;37.628;2023-03-01T06:20:16;98793.22;;;-4.95;58.81
76205;BME280;64986;55.672;37.628;2023-03-01T06:22:43;98788.75;;;-4.93;58.44
76205;BME280;64986;55.672;37.628;2023-03-01T06:25:10;98802.53;;;-4.94;58.58
76205;BME280;64986;55.672;37.628;2023-03-01T06:27:37;98790.28;;;-5.22;59.32
76205;BME280;64986;55.672;37.628;2023-03-01T06:30:03;98794.72;;;-5.24;59.37
76205;BME280;64986;55.672;37.628;2023-03-01T06:32:29;98801.78;;;-5.49;59.94
76205;BME280;64986;55.672;37.628;2023-03-01T06:34:55;98793.81;;;-5.35;59.83
76205;BME280;64986;55.672;37.628;2023-03-01T06:37:21;98802.53;;;-5.26;60.51
76205;BME280;64986;55.672;37.628;2023-03-01T06:39:46;98802.19;;;-5.21;60.05
76205;BME280;64986;55.672;37.628;2023-03-01T06:42:12;98787.25;;;-4.95;59.37
76205;BME280;64986;55.672;37.628;2023-03-01T06:44:40;98798.97;;;-4.82;58.48
76205;BME280;64986;55.672;37.628;2023-03-01T06:47:06;98790.47;;;-5.14;58.94
76205;BME280;64986;55.672;37.628;2023-03-01T06:49:32;98806.28;;;-4.98;59.51
76205;BME280;64986;55.672;37.628;2023-03-01T06:51:57;98797.16;;;-4.91;58.86
76205;BME280;64986;55.672;37.628;2023-03-01T06:54:23;98817.25;;;-4.96;59.42
76205;BME280;64986;55.672;37.628;2023-03-01T06:56:49;98802.50;;;-4.83;59.33
76205;BME280;64986;55.672;37.628;2023-03-01T06:59:15;98801.97;;;-4.77;59.13
76205;BME280;64986;55.672;37.628;2023-03-01T07:01:41;98808.31;;;-4.60;59.58
76205;BME280;64986;55.672;37.628;2023-03-01T07:04:07;98791.75;;;-4.46;58.12
76205;BME280;64986;55.672;37.628;2023-03-01T07:06:33;98783.47;;;-4.59;58.31
76205;BME280;64986;55.672;37.628;2023-03-01T07:08:58;98827.97;;;-4.28;57.92
76205;BME280;64986;55.672;37.628;2023-03-01T07:11:24;98818.91;;;-4.53;58.31
76205;BME280;64986;55.672;37.628;2023-03-01T07:13:49;98830.06;;;-4.43;58.21
76205;BME280;64986;55.672;37.628;2023-03-01T07:16:15;98837.69;;;-4.01;57.48
76205;BME280;64986;55.672;37.628;2023-03-01T07:18:41;98821.00;;;-4.16;57.07
76205;BME280;64986;55.672;37.628;2023-03-01T07:21:08;98829.78;;;-4.19;57.07
76205;BME280;64986;55.672;37.628;2023-03-01T07:23:34;98834.41;;;-4.34;57.96
76205;BME280;64986;55.672;37.628;2023-03-01T07:26:00;98835.03;;;-4.21;57.28
76205;BME280;64986;55.672;37.628;2023-03-01T07:28:26;98823.97;;;-4.42;57.86
76205;BME280;64986;55.672;37.628;2023-03-01T07:30:52;98831.41;;;-4.39;58.30
76205;BME280;64986;55.672;37.628;2023-03-01T07:33:18;98831.94;;;-4.45;58.58
76205;BME280;64986;55.672;37.628;2023-03-01T07:35:44;98834.56;;;-4.35;58.67
76205;BME280;64986;55.672;37.628;2023-03-01T07:38:09;98848.84;;;-4.42;58.74
76205;BME280;64986;55.672;37.628;2023-03-01T07:40:35;98844.44;;;-4.31;59.11
76205;BME280;64986;55.672;37.628;2023-03-01T07:43:01;98828.81;;;-4.18;58.13
76205;BME280;64986;55.672;37.628;2023-03-01T07:45:27;98844.06;;;-4.05;58.20
76205;BME280;64986;55.672;37.628;2023-03-01T07:47:54;98853.03;;;-4.21;58.17
76205;BME280;64986;55.672;37.628;2023-03-01T07:50:21;98851.63;;;-4.04;58.15
76205;BME280;64986;55.672;37.628;2023-03-01T07:52:48;98845.31;;;-4.00;58.34
76205;BME280;64986;55.672;37.628;2023-03-01T07:55:15;98841.94;;;-3.91;58.52
76205;BME280;64986;55.672;37.628;2023-03-01T07:57:41;98844.75;;;-3.94;58.65
76205;BME280;64986;55.672;37.628;2023-03-01T08:00:09;98850.72;;;-3.63;58.41
76205;BME280;64986;55.672;37.628;2023-03-01T08:02:35;98840.78;;;-3.77;57.77
76205;BME280;64986;55.672;37.628;2023-03-01T08:05:00;98841.69;;;-3.87;58.60
76205;BME280;64986;55.672;37.628;2023-03-01T08:07:26;98861.75;;;-3.81;58.51
76205;BME280;64986;55.672;37.628;2023-03-01T08:09:52;98831.69;;;-3.81;57.79
76205;BME280;64986;55.672;37.628;2023-03-01T08:12:17;98844.94;;;-3.85;58.54
76205;BME280;64986;55.672;37.628;2023-03-01T08:14:43;98843.19;;;-3.85;58.85
76205;BME280;64986;55.672;37.628;2023-03-01T08:17:08;98871.91;;;-3.80;58.42
76205;BME280;64986;55.672;37.628;2023-03-01T08:19:34;98863.22;;;-3.79;58.30
76205;BME280;64986;55.672;37.628;2023-03-01T08:22:02;98854.16;;;-3.83;58.25
76205;BME280;64986;55.672;37.628;2023-03-01T08:24:28;98856.88;;;-3.84;58.50
76205;BME280;64986;55.672;37.628;2023-03-01T08:26:54;98845.34;;;-3.90;58.61
76205;BME280;64986;55.672;37.628;2023-03-01T08:29:20;98857.69;;;-3.84;58.70
76205;BME280;64986;55.672;37.628;2023-03-01T08:31:46;98846.34;;;-3.72;58.37
76205;BME280;64986;55.672;37.628;2023-03-01T08:34:13;98852.56;;;-3.74;58.76
76205;BME280;64986;55.672;37.628;2023-03-01T08:36:42;98866.53;;;-3.67;58.62
76205;BME280;64986;55.672;37.628;2023-03-01T08:39:09;98846.09;;;-3.69;58.11
76205;BME280;64986;55.672;37.628;2023-03-01T08:41:35;98861.06;;;-3.43;57.32
76205;BME280;64986;55.672;37.628;2023-03-01T08:44:02;98881.31;;;-3.59;57.73
76205;BME280;64986;55.672;37.628;2023-03-01T08:46:33;98861.19;;;-3.54;57.34
76205;BME280;64986;55.672;37.628;2023-03-01T08:48:59;98848.16;;;-3.63;57.68
76205;BME280;64986;55.672;37.628;2023-03-01T08:51:25;98857.78;;;-3.55;57.59
76205;BME280;64986;55.672;37.628;2023-03-01T08:53:52;98870.03;;;-3.38;57.93
76205;BME280;64986;55.672;37.628;2023-03-01T08:56:18;98855.13;;;-3.34;57.26
76205;BME280;64986;55.672;37.628;2023-03-01T08:58:48;98871.41;;;-3.24;57.14
76205;BME280;64986;55.672;37.628;2023-03-01T09:01:17;98860.53;;;-3.37;57.83
76205;BME280;64986;55.672;37.628;2023-03-01T09:03:43;98876.44;;;-3.22;57.64
76205;BME280;64986;55.672;37.628;2023-03-01T09:06:10;98867.09;;;-3.14;57.32
76205;BME280;64986;55.672;37.628;2023-03-01T09:08:41;98875.34;;;-3.20;56.74
76205;BME280;64986;55.672;37.628;2023-03-01T09:11:08;98900.16;;;-3.09;55.87
76205;BME280;64986;55.672;37.628;2023-03-01T09:13:35;98834.28;;;-3.31;56.26
76205;BME280;64986;55.672;37.628;2023-03-01T09:16:02;98881.91;;;-3.46;56.42
76205;BME280;64986;55.672;37.628;2023-03-01T09:18:28;98871.44;;;-3.14;55.49
76205;BME280;64986;55.672;37.628;2023-03-01T09:21:09;98909.00;;;-2.92;55.78
76205;BME280;64986;55.672;37.628;2023-03-01T09:23:37;98853.56;;;-2.77;55.37
76205;BME280;64986;55.672;37.628;2023-03-01T09:26:05;98894.47;;;-2.16;54.61
76205;BME280;64986;55.672;37.628;2023-03-01T09:28:30;98856.22;;;-1.46;53.29
76205;BME280;64986;55.672;37.628;2023-03-01T09:31:00;98839.25;;;-0.50;50.61
76205;BME280;64986;55.672;37.628;2023-03-01T09:33:28;98863.78;;;0.58;49.40
76205;BME280;64986;55.672;37.628;2023-03-01T09:36:06;98862.94;;;0.92;48.51
76205;BME280;64986;55.672;37.628;2023-03-01T09:38:32;98849.78;;;0.85;47.73
76205;BME280;64986;55.672;37.628;2023-03-01T09:40:59;98845.97;;;1.14;47.08
76205;BME280;64986;55.672;37.628;2023-03-01T09:46:09;98851.97;;;1.30;45.71
76205;BME280;64986;55.672;37.628;2023-03-01T09:48:42;98877.81;;;2.28;45.12
76205;BME280;64986;55.672;37.628;2023-03-01T09:51:14;98873.66;;;3.43;44.26
76205;BME280;64986;55.672;37.628;2023-03-01T09:53:43;98877.91;;;3.82;41.72
76205;BME280;64986;55.672;37.628;2023-03-01T09:56:20;98853.97;;;3.86;40.57
76205;BME280;64986;55.672;37.628;2023-03-01T09:59:18;98878.91;;;3.12;42.44
76205;BME280;64986;55.672;37.628;2023-03-01T10:01:57;98865.63;;;2.76;42.31
76205;BME280;64986;55.672;37.628;2023-03-01T10:07:17;98861.50;;;3.58;39.48
76205;BME280;64986;55.672;37.628;2023-03-01T10:09:47;98893.03;;;4.01;40.23
76205;BME280;64986;55.672;37.628;2023-03-01T10:12:16;98884.47;;;3.32;40.53
76205;BME280;64986;55.672;37.628;2023-03-01T10:15:14;98887.19;;;2.85;43.00
76205;BME280;64986;55.672;37.628;2023-03-01T10:17:58;98911.41;;;3.62;42.64
76205;BME280;64986;55.672;37.628;2023-03-01T10:20:30;98911.97;;;3.03;42.38
76205;BME280;64986;55.672;37.628;2023-03-01T10:22:59;98911.97;;;3.03;42.38
76205;BME280;64986;55.672;37.628;2023-03-01T10:31:32;98923.75;;;0.79;44.12
76205;BME280;64986;55.672;37.628;2023-03-01T10:34:04;98915.31;;;0.09;44.88
76205;BME280;64986;55.672;37.628;2023-03-01T10:36:33;98918.50;;;0.03;45.67
76205;BME280;64986;55.672;37.628;2023-03-01T10:39:03;98905.78;;;-0.34;47.04
76205;BME280;64986;55.672;37.628;2023-03-01T10:41:45;98901.56;;;-0.53;46.60
76205;BME280;64986;55.672;37.628;2023-03-01T10:44:41;98891.44;;;-0.46;47.39
76205;BME280;64986;55.672;37.628;2023-03-01T10:47:33;98924.56;;;-1.13;48.39
76205;BME280;64986;55.672;37.628;2023-03-01T10:50:09;98896.34;;;-1.06;48.44
76205;BME280;64986;55.672;37.628;2023-03-01T10:52:56;98888.56;;;-0.61;47.92
76205;BME280;64986;55.672;37.628;2023-03-01T10:58:17;98885.00;;;2.10;43.92
76205;BME280;64986;55.672;37.628;2023-03-01T11:05:58;98891.69;;;3.68;38.90
76205;BME280;64986;55.672;37.628;2023-03-01T11:08:33;98922.31;;;1.92;40.16
76205;BME280;64986;55.672;37.628;2023-03-01T11:11:18;98896.09;;;0.46;42.92
76205;BME280;64986;55.672;37.628;2023-03-01T11:16:24;98907.16;;;0.30;43.72
76205;BME280;64986;55.672;37.628;2023-03-01T11:19:19;98915.16;;;0.45;44.52
76205;BME280;64986;55.672;37.628;2023-03-01T11:24:46;98880.50;;;3.82;39.57
76205;BME280;64986;55.672;37.628;2023-03-01T11:27:19;98880.63;;;4.92;35.97
76205;BME280;64986;55.672;37.628;2023-03-01T11:35:24;98887.13;;;2.93;37.86
76205;BME280;64986;55.672;37.628;2023-03-01T11:43:37;98903.47;;;4.60;37.22
76205;BME280;64986;55.672;37.628;2023-03-01T11:51:59;98901.22;;;4.13;36.08
76205;BME280;64986;55.672;37.628;2023-03-01T11:57:07;98938.19;;;0.90;41.24
76205;BME280;64986;55.672;37.628;2023-03-01T11:59:51;98900.69;;;2.72;39.90
76205;BME280;64986;55.672;37.628;2023-03-01T12:08:17;98919.25;;;5.03;34.49
76205;BME280;64986;55.672;37.628;2023-03-01T12:13:54;98924.56;;;4.21;35.50
76205;BME280;64986;55.672;37.628;2023-03-01T12:19:06;98914.19;;;3.38;38.78
76205;BME280;64986;55.672;37.628;2023-03-01T12:24:18;98914.94;;;2.45;38.26
76205;BME280;64986;55.672;37.628;2023-03-01T12:26:57;98932.38;;;1.87;39.63
76205;BME280;64986;55.672;37.628;2023-03-01T12:29:39;98928.00;;;1.63;39.69
76205;BME280;64986;55.672;37.628;2023-03-01T12:32:28;98940.66;;;0.92;40.61
76205;BME280;64986;55.672;37.628;2023-03-01T12:40:22;98903.69;;;1.73;40.66
76205;BME280;64986;55.672;37.628;2023-03-01T12:48:51;98954.97;;;1.20;40.07
76205;BME280;64986;55.672;37.628;2023-03-01T12:51:23;98926.78;;;0.67;41.07
76205;BME280;64986;55.672;37.628;2023-03-01T12:53:53;98937.47;;;0.12;42.60
76205;BME280;64986;55.672;37.628;2023-03-01T12:56:26;98944.59;;;0.10;42.09
76205;BME280;64986;55.672;37.628;2023-03-01T13:04:35;98935.38;;;-0.46;43.06
76205;BME280;64986;55.672;37.628;2023-03-01T13:12:02;98917.06;;;-0.89;44.27
76205;BME280;64986;55.672;37.628;2023-03-01T13:16:56;98939.22;;;-1.14;45.69
76205;BME280;64986;55.672;37.628;2023-03-01T13:19:26;98927.97;;;-1.22;45.79
76205;BME280;64986;55.672;37.628;2023-03-01T13:21:57;98951.09;;;-1.58;46.26
76205;BME280;64986;55.672;37.628;2023-03-01T13:29:52;98958.50;;;-1.45;47.68
76205;BME280;64986;55.672;37.628;2023-03-01T13:32:25;98927.97;;;-1.50;47.35
76205;BME280;64986;55.672;37.628;2023-03-01T13:35:01;98926.44;;;-1.89;48.96
76205;BME280;64986;55.672;37.628;2023-03-01T13:37:46;98922.38;;;-1.92;49.74
76205;BME280;64986;55.672;37.628;2023-03-01T13:42:51;98927.28;;;-1.89;49.61
76205;BME280;64986;55.672;37.628;2023-03-01T13:45:34;98937.38;;;-1.58;48.26
76205;BME280;64986;55.672;37.628;2023-03-01T13:50:42;98914.81;;;-2.03;49.13
76205;BME280;64986;55.672;37.628;2023-03-01T13:53:16;98930.53;;;-1.97;48.92
76205;BME280;64986;55.672;37.628;2023-03-01T13:55:50;98961.47;;;-1.77;48.95
76205;BME280;64986;55.672;37.628;2023-03-01T13:58:25;98977.72;;;-1.67;47.74
76205;BME280;64986;55.672;37.628;2023-03-01T14:00:58;98928.94;;;-2.75;50.72
76205;BME280;64986;55.672;37.628;2023-03-01T14:03:25;98909.28;;;-2.28;50.58
76205;BME280;64986;55.672;37.628;2023-03-01T14:06:08;98922.47;;;-2.40;51.13
76205;BME280;64986;55.672;37.628;2023-03-01T14:08:37;98923.16;;;-1.82;49.77
76205;BME280;64986;55.672;37.628;2023-03-01T14:19:34;98915.13;;;-2.26;50.57
76205;BME280;64986;55.672;37.628;2023-03-01T14:24:49;98906.84;;;-2.68;51.18
76205;BME280;64986;55.672;37.628;2023-03-01T14:27:16;98899.94;;;-2.67;51.18
76205;BME280;64986;55.672;37.628;2023-03-01T14:29:44;98880.97;;;-2.57;51.44
76205;BME280;64986;55.672;37.628;2023-03-01T14:34:35;98889.34;;;-2.84;52.42
76205;BME280;64986;55.672;37.628;2023-03-01T14:37:27;98881.75;;;-2.66;51.92
76205;BME280;64986;55.672;37.628;2023-03-01T14:39:54;98898.56;;;-2.91;52.39
76205;BME280;64986;55.672;37.628;2023-03-01T14:42:22;98896.22;;;-3.03;52.46
76205;BME280;64986;55.672;37.628;2023-03-01T14:44:51;98891.22;;;-3.05;52.70
76205;BME280;64986;55.672;37.628;2023-03-01T14:47:28;98892.63;;;-2.72;51.92
76205;BME280;64986;55.672;37.628;2023-03-01T14:50:28;98888.53;;;-2.65;52.11
76205;BME280;64986;55.672;37.628;2023-03-01T14:52:59;98866.44;;;-2.96;53.14
76205;BME280;64986;55.672;37.628;2023-03-01T14:55:32;98887.97;;;-2.88;53.19
76205;BME280;64986;55.672;37.628;2023-03-01T14:58:03;98887.16;;;-3.17;53.75
76205;BME280;64986;55.672;37.628;2023-03-01T15:00:31;98876.28;;;-3.21;54.42
76205;BME280;64986;55.672;37.628;2023-03-01T15:03:04;98882.81;;;-2.97;53.84
76205;BME280;64986;55.672;37.628;2023-03-01T15:05:35;98877.84;;;-2.70;52.69